Time;durP1;ratioP1;P1;durP2;ratioP2;P2;SDS_P1;SDS_P2;PMS_P1;PMS_P2;Temp;Humidity;BMP_temperature;BMP_pressure;BME280_temperature;BME280_humidity;BME280_pressure;Samples;Min_cycle;Max_cycle;Signal;HPM_P1;HPM_P2
2022/11/30 00:00:16;;;;;;;9.60;7.67;;;;;;;-143.84;98.81;45250.91;5112172;28;20435;-78
2022/11/30 00:02:44;;;;;;;11.67;8.50;;;;;;;-143.84;98.18;45266.16;5112039;28;20840;-78
2022/11/30 00:05:11;;;;;;;14.73;7.97;;;;;;;-143.84;98.01;45239.50;5111883;28;20424;-78
2022/11/30 00:07:39;;;;;;;9.27;7.13;;;;;;;-143.84;98.16;45266.16;5112422;28;20499;-78
2022/11/30 00:10:08;;;;;;;8.57;7.23;;;;;;;-143.84;98.18;45275.66;5112044;28;20496;-78
2022/11/30 00:12:35;;;;;;;14.60;9.10;;;;;;;-143.84;97.80;45239.50;5112075;28;20432;-78
2022/11/30 00:15:03;;;;;;;8.87;6.90;;;;;;;-143.84;97.89;45249.00;5111889;28;20470;-78
2022/11/30 00:17:30;;;;;;;9.20;7.87;;;;;;;-143.84;97.63;45243.31;5112006;28;20439;-78
2022/11/30 00:19:57;;;;;;;9.53;8.57;;;;;;;-143.84;97.87;45243.31;5112065;28;20925;-78
2022/11/30 00:22:24;;;;;;;11.20;7.87;;;;;;;-143.84;97.47;45283.28;5112241;28;20952;-78
2022/11/30 00:24:52;;;;;;;13.63;9.40;;;;;;;-143.84;97.29;45266.16;5111990;28;20451;-78
2022/11/30 00:27:19;;;;;;;10.57;7.50;;;;;;;-143.84;97.10;45289.00;5111502;28;21245;-78
2022/11/30 00:29:46;;;;;;;9.90;7.77;;;;;;;-143.84;97.04;45275.66;5111785;28;20423;-78
2022/11/30 00:32:14;;;;;;;9.57;8.57;;;;;;;-143.84;97.21;45271.88;5111762;28;21225;-78
2022/11/30 00:34:41;;;;;;;10.47;8.13;;;;;;;-143.84;97.27;45268.06;5111888;28;20941;-78
2022/11/30 00:37:08;;;;;;;13.27;8.17;;;;;;;-143.84;97.59;45268.06;5111893;28;20439;-78
2022/11/30 00:39:35;;;;;;;11.67;8.23;;;;;;;-143.84;97.08;45269.97;5112021;28;21119;-78
2022/11/30 00:42:04;;;;;;;12.80;7.93;;;;;;;-143.84;96.80;45296.63;5111686;28;20434;-78
2022/11/30 00:44:31;;;;;;;10.60;8.67;;;;;;;-143.84;96.75;45289.00;5111676;28;20431;-78
2022/11/30 00:46:59;;;;;;;9.50;8.30;;;;;;;-143.84;96.99;45260.44;5111761;28;20467;-84
2022/11/30 00:49:26;;;;;;;13.00;8.80;;;;;;;-143.84;96.81;45254.72;5110943;28;20439;-83
2022/11/30 00:51:54;;;;;;;12.00;7.97;;;;;;;-143.84;97.10;45273.78;5111605;28;20448;-84
2022/11/30 00:54:21;;;;;;;9.27;8.27;;;;;;;-143.84;96.90;45273.78;5111263;28;20447;-83
2022/11/30 00:56:48;;;;;;;11.23;7.27;;;;;;;-143.84;96.66;45256.63;5111432;28;20431;-84
2022/11/30 00:59:16;;;;;;;10.60;8.07;;;;;;;-143.84;96.58;45279.47;5111628;28;20427;-84
2022/11/30 01:01:44;;;;;;;8.63;7.03;;;;;;;-143.84;96.67;45279.47;5111458;28;20432;-84
2022/11/30 01:04:11;;;;;;;10.47;6.90;;;;;;;-143.84;96.81;45262.34;5111304;28;20488;-84
2022/11/30 01:06:38;;;;;;;9.03;7.73;;;;;;;-143.84;96.53;45273.78;5111539;28;20834;-84
2022/11/30 01:09:05;;;;;;;13.40;7.43;;;;;;;-143.84;97.40;45269.97;5111568;28;20427;-84
2022/11/30 01:11:33;;;;;;;11.83;8.07;;;;;;;-143.84;97.41;45243.31;5111317;28;20496;-83
2022/11/30 01:14:01;;;;;;;7.97;6.93;;;;;;;-143.84;97.04;45281.38;5111593;28;20435;-84
2022/11/30 01:16:32;;;;;;;10.33;7.90;;;;;;;-143.84;97.18;45271.88;5111482;28;20438;-83
2022/11/30 01:19:00;;;;;;;8.87;7.40;;;;;;;-143.84;96.98;45283.28;5111230;28;20446;-83
2022/11/30 01:21:28;;;;;;;10.13;7.30;;;;;;;-143.84;97.41;45258.53;5111327;28;20921;-83
2022/11/30 01:23:56;;;;;;;10.07;7.20;;;;;;;-143.84;97.17;45269.97;5111487;28;20439;-83
2022/11/30 01:26:24;;;;;;;10.70;7.67;;;;;;;-143.84;96.92;45266.16;5110844;28;20895;-83
2022/11/30 01:28:53;;;;;;;8.40;6.93;;;;;;;-143.84;97.41;45273.78;5111312;28;20488;-83
2022/11/30 01:31:22;;;;;;;8.00;6.60;;;;;;;-143.84;97.32;45256.63;5111247;28;20438;-84
2022/11/30 01:33:52;;;;;;;7.83;6.13;;;;;;;-143.84;97.58;45285.19;5111297;28;20453;-83
2022/11/30 01:36:21;;;;;;;8.23;6.80;;;;;;;-143.84;97.47;45262.34;5111284;28;20500;-84
2022/11/30 01:38:50;;;;;;;8.63;5.90;;;;;;;-143.84;98.18;45247.09;5110990;28;20435;-84
2022/11/30 01:41:20;;;;;;;8.57;5.63;;;;;;;-143.84;97.78;45266.16;5111159;28;20775;-84
2022/11/30 01:43:57;;;;;;;7.00;5.93;;;;;;;-143.84;97.54;45254.72;5111242;28;20427;-83
2022/11/30 01:46:32;;;;;;;13.33;6.17;;;;;;;-143.84;97.91;45268.06;5110934;28;20481;-83
2022/11/30 01:49:06;;;;;;;8.33;5.57;;;;;;;-143.84;97.97;45247.09;5110945;28;21000;-84
2022/11/30 01:51:38;;;;;;;9.27;5.80;;;;;;;-143.84;98.21;45247.09;5110558;28;20423;-84
2022/11/30 01:54:09;;;;;;;6.30;5.70;;;;;;;-143.84;97.75;45264.25;5111033;28;20446;-84
2022/11/30 01:56:39;;;;;;;7.00;6.07;;;;;;;-143.84;97.65;45258.53;5110908;28;20470;-84
2022/11/30 01:59:06;;;;;;;7.17;5.67;;;;;;;-143.84;97.58;45264.25;5111141;28;20431;-84
2022/11/30 02:01:33;;;;;;;7.47;5.93;;;;;;;-143.84;97.74;45256.63;5113339;28;20434;-84
2022/11/30 02:04:07;;;;;;;5.70;4.97;;;;;;;-143.84;97.90;45281.38;5114863;28;20461;-83
2022/11/30 02:06:35;;;;;;;5.80;5.30;;;;;;;-143.84;97.93;45269.97;5114678;28;20466;-83
2022/11/30 02:09:03;;;;;;;6.27;5.67;;;;;;;-143.84;98.00;45231.88;5114191;28;20972;-84
2022/11/30 02:11:30;;;;;;;7.90;6.10;;;;;;;-143.84;97.47;45285.19;5114458;28;20495;-84
2022/11/30 02:14:23;;;;;;;6.03;5.43;;;;;;;-143.84;97.68;45281.38;5114672;28;20435;-83
2022/11/30 02:16:59;;;;;;;7.33;6.60;;;;;;;-143.84;97.42;45268.06;5114400;28;20846;-84
2022/11/30 02:19:58;;;;;;;6.07;5.30;;;;;;;-143.84;97.52;45249.00;5114342;28;20435;-84
2022/11/30 02:22:43;;;;;;;7.77;5.90;;;;;;;-143.84;97.52;45269.97;5114183;28;21016;-83
2022/11/30 02:25:21;;;;;;;5.40;4.90;;;;;;;-143.84;97.39;45308.03;5113824;28;20456;-83
2022/11/30 02:28:10;;;;;;;5.50;4.97;;;;;;;-143.84;97.34;45281.38;5114096;28;21089;-83
2022/11/30 02:30:44;;;;;;;6.87;6.17;;;;;;;-143.84;97.07;45285.19;5114076;28;20447;-83
2022/11/30 02:33:15;;;;;;;5.17;4.23;;;;;;;-143.84;97.18;45285.19;5114274;28;20446;-83
2022/11/30 02:35:48;;;;;;;5.67;5.10;;;;;;;-143.84;97.44;45279.47;5114027;28;20483;-83
2022/11/30 02:38:19;;;;;;;4.77;4.37;;;;;;;-143.84;97.47;45287.09;5114146;28;20439;-84
2022/11/30 02:40:46;;;;;;;7.93;6.10;;;;;;;-143.84;97.47;45287.09;5113633;28;20438;-84
2022/11/30 02:43:14;;;;;;;5.97;5.30;;;;;;;-143.84;97.11;45258.53;5113577;28;20450;-84
2022/11/30 02:45:50;;;;;;;6.40;5.77;;;;;;;-143.84;97.44;45287.09;5114051;28;20430;-84
2022/11/30 02:48:21;;;;;;;6.23;5.37;;;;;;;-143.84;97.45;45269.97;5114038;28;20496;-86
2022/11/30 02:50:53;;;;;;;6.53;5.80;;;;;;;-143.84;97.42;45254.72;5114049;28;20427;-85
2022/11/30 02:53:21;;;;;;;6.53;5.90;;;;;;;-143.84;97.55;45287.09;5113641;28;20472;-84
2022/11/30 02:55:48;;;;;;;6.87;6.13;;;;;;;-143.84;97.87;45285.19;5113628;28;20446;-84
2022/11/30 02:58:17;;;;;;;7.00;5.27;;;;;;;-143.84;97.43;45266.16;5113567;28;20439;-84
2022/11/30 03:00:46;;;;;;;7.50;5.37;;;;;;;-143.84;97.27;45258.53;5113512;28;20465;-84
2022/11/30 03:03:13;;;;;;;5.53;5.03;;;;;;;-143.84;97.52;45275.66;5113363;28;20518;-84
2022/11/30 03:05:41;;;;;;;5.87;5.23;;;;;;;-143.84;97.38;45249.00;5113542;28;20435;-84
2022/11/30 03:08:08;;;;;;;6.33;5.73;;;;;;;-143.84;97.30;45281.38;5113779;28;20523;-84
2022/11/30 03:10:35;;;;;;;7.10;5.73;;;;;;;-143.84;97.51;45275.66;5113307;28;20491;-83
2022/11/30 03:13:02;;;;;;;6.73;5.80;;;;;;;-143.84;97.37;45266.16;5112219;28;21005;-83
2022/11/30 03:15:29;;;;;;;7.10;5.43;;;;;;;-143.84;97.30;45290.91;5112904;28;21021;-84
2022/11/30 03:18:01;;;;;;;5.97;5.13;;;;;;;-143.84;97.22;45283.28;5113739;28;20868;-83
2022/11/30 03:20:28;;;;;;;6.13;5.63;;;;;;;-143.84;97.61;45256.63;5113092;28;20447;-83
2022/11/30 03:22:58;;;;;;;6.37;5.77;;;;;;;-143.84;97.78;45258.53;5113352;28;20428;-83
2022/11/30 03:25:26;;;;;;;6.67;6.00;;;;;;;-143.84;97.72;45224.25;5112815;28;20479;-83
2022/11/30 03:27:53;;;;;;;6.60;4.80;;;;;;;-143.84;97.39;45239.50;5113471;28;20463;-84
2022/11/30 03:30:20;;;;;;;6.20;5.60;;;;;;;-143.84;97.41;45262.34;5112901;28;20427;-84
2022/11/30 03:32:47;;;;;;;7.43;6.00;;;;;;;-143.84;97.10;45264.25;5112554;28;20439;-83
2022/11/30 03:35:16;;;;;;;6.50;5.90;;;;;;;-143.84;96.90;45260.44;5112790;28;20435;-84
2022/11/30 03:37:43;;;;;;;6.30;5.70;;;;;;;-143.84;97.38;45279.47;5112935;28;20456;-84
2022/11/30 03:40:11;;;;;;;7.60;6.23;;;;;;;-143.84;97.27;45264.25;5112928;28;20439;-84
2022/11/30 03:42:38;;;;;;;7.47;5.00;;;;;;;-143.84;97.04;45275.66;5112793;28;20488;-83
2022/11/30 03:45:07;;;;;;;5.83;5.10;;;;;;;-143.84;97.24;45266.16;5112629;28;20868;-83
2022/11/30 03:47:34;;;;;;;6.07;5.47;;;;;;;-143.84;96.78;45269.97;5112482;28;20478;-83
2022/11/30 03:50:01;;;;;;;8.83;5.73;;;;;;;-143.84;97.21;45279.47;5112615;28;20427;-84
2022/11/30 03:52:29;;;;;;;6.77;5.73;;;;;;;-143.84;97.02;45281.38;5112781;28;20431;-84
2022/11/30 03:54:57;;;;;;;5.70;5.20;;;;;;;-143.84;97.04;45294.72;5112300;28;20439;-83
2022/11/30 03:57:24;;;;;;;6.53;5.43;;;;;;;-143.84;97.49;45271.88;5112747;28;20423;-83
2022/11/30 03:59:51;;;;;;;8.10;6.30;;;;;;;-143.84;97.62;45287.09;5112568;28;20442;-83
2022/11/30 04:02:18;;;;;;;6.40;5.70;;;;;;;-143.84;97.21;45250.91;5111943;28;20450;-84
2022/11/30 04:04:45;;;;;;;6.03;5.53;;;;;;;-143.84;97.53;45269.97;5112238;28;20998;-84
2022/11/30 04:07:13;;;;;;;6.70;6.10;;;;;;;-143.84;97.92;45285.19;5112136;28;20462;-84
2022/11/30 04:09:41;;;;;;;8.03;7.00;;;;;;;-143.84;97.64;45262.34;5112433;28;20435;-84
2022/11/30 04:12:08;;;;;;;6.87;6.00;;;;;;;-143.84;97.64;45268.06;5111916;28;20794;-84
2022/11/30 04:14:35;;;;;;;7.30;6.47;;;;;;;-143.84;97.66;45266.16;5112280;28;20435;-83
2022/11/30 04:17:03;;;;;;;9.20;6.83;;;;;;;-143.84;97.28;45269.97;5112240;28;20440;-84
2022/11/30 04:19:30;;;;;;;10.40;7.30;;;;;;;-143.84;97.25;45279.47;5112096;28;20431;-84
2022/11/30 04:21:57;;;;;;;7.50;6.30;;;;;;;-143.84;97.27;45266.16;5111916;28;20522;-84
2022/11/30 04:24:24;;;;;;;8.53;7.10;;;;;;;-143.84;97.50;45258.53;5111677;28;20443;-84
2022/11/30 04:26:53;;;;;;;7.87;6.60;;;;;;;-143.84;97.43;45250.91;5111670;28;20893;-80
2022/11/30 04:29:20;;;;;;;12.60;7.80;;;;;;;-143.84;97.46;45273.78;5111574;28;20475;-84
2022/11/30 04:31:47;;;;;;;7.73;6.93;;;;;;;-143.84;97.35;45273.78;5111484;28;20435;-80
2022/11/30 04:34:14;;;;;;;10.73;7.03;;;;;;;-143.84;97.51;45275.66;5111801;28;20488;-81
2022/11/30 04:36:41;;;;;;;7.73;7.00;;;;;;;-143.84;97.68;45292.81;5111622;28;20431;-81
2022/11/30 04:39:08;;;;;;;9.67;7.73;;;;;;;-143.84;97.59;45256.63;5110729;28;20442;-82
2022/11/30 04:41:35;;;;;;;10.00;7.50;;;;;;;-143.84;97.62;45264.25;5111667;28;20498;-76
2022/11/30 04:44:04;;;;;;;8.00;6.87;;;;;;;-143.84;97.79;45273.78;5111283;28;20431;-83
2022/11/30 04:46:31;;;;;;;9.37;8.00;;;;;;;-143.84;97.89;45254.72;5111531;28;20504;-79
2022/11/30 04:48:58;;;;;;;11.77;8.50;;;;;;;-143.84;97.72;45269.97;5111602;28;20435;-79
2022/11/30 04:51:25;;;;;;;12.00;8.63;;;;;;;-143.84;97.83;45266.16;5111614;28;20427;-81
2022/11/30 04:53:52;;;;;;;9.70;7.60;;;;;;;-143.84;97.95;45279.47;5111655;28;20431;-81
2022/11/30 04:56:19;;;;;;;9.37;7.13;;;;;;;-143.84;97.96;45273.78;5111247;28;20439;-80
2022/11/30 04:58:47;;;;;;;9.50;7.27;;;;;;;-143.84;98.01;45273.78;5111282;28;21005;-81
2022/11/30 05:01:15;;;;;;;10.73;8.20;;;;;;;-143.84;98.03;45277.56;5111395;28;20431;-81
2022/11/30 05:03:42;;;;;;;9.73;7.60;;;;;;;-143.84;97.99;45287.09;5111348;28;20438;-81
2022/11/30 05:06:09;;;;;;;9.30;8.23;;;;;;;-143.84;98.81;45285.19;5110969;28;20442;-77
2022/11/30 05:08:36;;;;;;;12.50;8.87;;;;;;;-143.84;98.78;45260.44;5111446;28;21265;-77
2022/11/30 05:11:04;;;;;;;17.17;9.47;;;;;;;-143.84;98.20;45268.06;5110904;28;20818;-76
2022/11/30 05:13:31;;;;;;;12.27;8.20;;;;;;;-143.84;98.18;45256.63;5092452;28;20447;-77
2022/11/30 05:15:58;;;;;;;10.47;8.67;;;;;;;-143.84;98.13;45309.94;5110895;28;20518;-77
2022/11/30 05:18:28;;;;;;;9.30;8.40;;;;;;;-143.84;98.17;45262.34;5110900;28;21253;-77
2022/11/30 05:20:55;;;;;;;8.70;7.80;;;;;;;-143.84;98.36;45292.81;5111115;28;20531;-77
2022/11/30 05:23:22;;;;;;;13.93;9.27;;;;;;;-143.84;98.26;45260.44;5110980;28;20435;-77
2022/11/30 05:25:49;;;;;;;9.93;8.90;;;;;;;-143.84;98.32;45260.44;5110795;28;20478;-77
2022/11/30 05:28:16;;;;;;;9.40;8.40;;;;;;;-143.84;98.33;45271.88;5110460;28;20471;-75
2022/11/30 05:30:44;;;;;;;17.20;9.03;;;;;;;-143.84;98.72;45289.00;5093851;28;20440;-77
2022/11/30 05:33:12;;;;;;;10.00;8.80;;;;;;;-143.84;99.08;45233.78;5090147;28;20440;-76
2022/11/30 05:35:40;;;;;;;10.00;9.00;;;;;;;-143.84;98.90;45285.19;5091695;28;20914;-78
2022/11/30 05:38:07;;;;;;;10.70;9.50;;;;;;;-143.84;98.92;45279.47;5094689;28;20443;-75
2022/11/30 05:40:35;;;;;;;12.60;9.53;;;;;;;-143.84;99.43;45249.00;5094755;28;21273;-76
2022/11/30 05:43:03;;;;;;;10.73;9.47;;;;;;;-143.84;99.05;45269.97;5094201;28;20432;-77
2022/11/30 05:45:31;;;;;;;6.63;6.00;;;;;;;-143.84;99.00;45243.31;5094470;28;20497;-77
2022/11/30 05:47:58;;;;;;;14.77;10.63;;;;;;;-143.84;99.30;45258.53;5104614;28;20472;-77
2022/11/30 05:50:25;;;;;;;11.70;9.57;;;;;;;-143.84;99.22;45277.56;5114944;28;20435;-77
2022/11/30 05:52:55;;;;;;;11.23;9.83;;;;;;;-143.84;99.55;45268.06;5114430;28;20488;-77
2022/11/30 05:55:22;;;;;;;11.73;9.27;;;;;;;-143.84;99.60;45243.31;5114292;28;20443;-77
2022/11/30 05:57:50;;;;;;;10.20;8.50;;;;;;;-143.84;99.70;45271.88;5115402;28;20851;-77
2022/11/30 06:00:18;;;;;;;13.70;9.33;;;;;;;-143.84;99.76;45285.19;5115307;28;20496;-77
2022/11/30 06:02:46;;;;;;;12.03;8.73;;;;;;;-143.84;100.00;45271.88;5115354;28;20419;-76
2022/11/30 06:05:13;;;;;;;9.80;8.80;;;;;;;-143.84;100.00;45256.63;5114688;28;20492;-77
2022/11/30 06:07:41;;;;;;;14.60;9.10;;;;;;;-143.84;100.00;45254.72;5114375;28;20467;-77
2022/11/30 06:10:11;;;;;;;12.80;9.97;;;;;;;-143.84;100.00;45262.34;5114474;28;20449;-76
2022/11/30 06:12:38;;;;;;;10.30;8.67;;;;;;;-143.84;100.00;45249.00;5113926;28;20435;-77
2022/11/30 06:15:06;;;;;;;21.00;10.23;;;;;;;-143.84;100.00;45250.91;5113356;28;20446;-76
2022/11/30 06:17:34;;;;;;;12.20;9.67;;;;;;;-143.84;100.00;45252.81;5113308;28;20480;-77
2022/11/30 06:20:01;;;;;;;13.90;10.97;;;;;;;-143.84;100.00;45245.19;5113627;28;20427;-77
2022/11/30 06:22:28;;;;;;;14.50;10.63;;;;;;;-143.84;100.00;45256.63;5113019;28;20484;-76
2022/11/30 06:24:55;;;;;;;14.17;10.67;;;;;;;-143.84;100.00;45258.53;5113068;28;20450;-76
2022/11/30 06:27:24;;;;;;;12.73;10.90;;;;;;;-143.84;100.00;45275.66;5113194;28;20885;-77
2022/11/30 06:29:51;;;;;;;15.93;11.40;;;;;;;-143.84;100.00;45226.16;5113385;28;20500;-76
2022/11/30 06:32:18;;;;;;;13.97;10.53;;;;;;;-143.84;100.00;45254.72;5114072;28;20434;-76
2022/11/30 06:34:45;;;;;;;11.17;9.37;;;;;;;-143.84;100.00;45269.97;5114037;28;20452;-77
2022/11/30 06:37:12;;;;;;;14.20;10.37;;;;;;;-143.84;100.00;45237.59;5114039;28;20435;-76
2022/11/30 06:39:39;;;;;;;13.30;10.63;;;;;;;-143.84;100.00;45256.63;5114043;28;20443;-77
2022/11/30 06:42:06;;;;;;;17.40;11.67;;;;;;;-143.84;100.00;45247.09;5113599;28;20845;-77
2022/11/30 06:44:35;;;;;;;14.03;10.83;;;;;;;-143.84;100.00;45237.59;5113746;28;20439;-77
2022/11/30 06:47:02;;;;;;;11.40;9.43;;;;;;;-143.84;100.00;45252.81;5113984;28;20826;-77
2022/11/30 06:49:30;;;;;;;15.37;10.67;;;;;;;-143.84;100.00;45260.44;5114306;28;20535;-77
2022/11/30 06:51:57;;;;;;;16.60;11.30;;;;;;;-143.84;100.00;45250.91;5113087;28;20494;-77
2022/11/30 06:54:24;;;;;;;17.97;11.50;;;;;;;-143.84;100.00;45264.25;5113531;28;20439;-77
2022/11/30 06:56:51;;;;;;;14.70;10.33;;;;;;;-143.84;100.00;45249.00;5113318;28;20431;-76
2022/11/30 06:59:18;;;;;;;12.93;10.10;;;;;;;-143.84;100.00;45258.53;5113839;28;20431;-76
2022/11/30 07:01:47;;;;;;;21.60;10.93;;;;;;;-143.84;100.00;45228.06;5113566;28;20439;-77
2022/11/30 07:04:14;;;;;;;17.30;11.43;;;;;;;-143.84;100.00;45258.53;5113484;28;20473;-77
2022/11/30 07:06:42;;;;;;;14.23;11.10;;;;;;;-143.84;100.00;45245.19;5113460;28;20967;-77
2022/11/30 07:09:10;;;;;;;14.40;12.27;;;;;;;-143.84;100.00;45216.63;5112984;28;20477;-77
2022/11/30 07:11:38;;;;;;;16.87;12.00;;;;;;;-143.84;100.00;45252.81;5113993;28;20488;-77
2022/11/30 07:14:05;;;;;;;20.57;11.10;;;;;;;-143.84;100.00;45254.72;5113121;28;20519;-76
2022/11/30 07:16:32;;;;;;;12.80;11.23;;;;;;;-143.84;100.00;45256.63;5113203;28;20423;-77
2022/11/30 07:19:01;;;;;;;12.50;10.53;;;;;;;-143.84;100.00;45245.19;5112834;28;20990;-77
2022/11/30 07:21:28;;;;;;;13.70;11.23;;;;;;;-143.84;100.00;45250.91;5113432;28;20508;-77
2022/11/30 07:26:39;;;;;;;15.07;11.57;;;;;;;-143.84;100.00;45256.63;5112678;28;20484;-77
2022/11/30 07:29:07;;;;;;;12.13;10.20;;;;;;;-143.84;100.00;45247.09;5112882;28;20476;-77
2022/11/30 07:31:34;;;;;;;14.93;11.40;;;;;;;-143.84;100.00;45264.25;5113305;28;20440;-77
2022/11/30 07:34:07;;;;;;;12.63;10.80;;;;;;;-143.84;100.00;45237.59;5112967;28;20461;-76
2022/11/30 07:36:36;;;;;;;13.53;10.50;;;;;;;-143.84;100.00;45268.06;5113013;28;20439;-76
2022/11/30 07:39:03;;;;;;;14.80;10.97;;;;;;;-143.84;100.00;45243.31;5113021;28;20510;-76
2022/11/30 07:41:30;;;;;;;12.67;10.40;;;;;;;-143.84;100.00;45271.88;5112408;28;20835;-76
2022/11/30 07:43:58;;;;;;;13.87;10.97;;;;;;;-143.84;100.00;45266.16;5112799;28;20450;-77
2022/11/30 07:46:26;;;;;;;11.83;9.70;;;;;;;-143.84;100.00;45256.63;5112888;28;20441;-77
2022/11/30 07:48:53;;;;;;;13.07;9.27;;;;;;;-143.84;100.00;45269.97;5112552;28;20867;-76
2022/11/30 07:51:22;;;;;;;14.63;10.03;;;;;;;-143.84;100.00;45250.91;5112505;28;20478;-76
2022/11/30 07:53:50;;;;;;;12.87;9.67;;;;;;;-143.84;100.00;45228.06;5112613;28;20966;-77
2022/11/30 07:56:19;;;;;;;12.10;10.00;;;;;;;-143.84;100.00;45262.34;5112375;28;20435;-76
2022/11/30 07:58:47;;;;;;;11.07;9.30;;;;;;;-143.84;100.00;45249.00;5111413;28;20439;-76
2022/11/30 08:01:16;;;;;;;14.93;10.63;;;;;;;-143.84;100.00;45231.88;5112278;28;20941;-77
2022/11/30 08:03:43;;;;;;;14.47;9.83;;;;;;;-143.84;100.00;45266.16;5112544;28;20427;-76
2022/11/30 08:06:11;;;;;;;12.73;10.10;;;;;;;-143.84;100.00;45235.69;5112432;28;20442;-76
2022/11/30 08:08:41;;;;;;;10.33;9.20;;;;;;;-143.84;100.00;45258.53;5112216;28;20486;-77
2022/11/30 08:11:11;;;;;;;11.70;9.17;;;;;;;-143.84;100.00;45250.91;5112303;28;20797;-77
2022/11/30 08:13:38;;;;;;;11.73;9.80;;;;;;;-143.84;100.00;45243.31;5111979;28;20439;-77
2022/11/30 08:16:08;;;;;;;11.07;8.60;;;;;;;-143.84;100.00;45271.88;5111740;28;20449;-77
2022/11/30 08:18:35;;;;;;;12.87;9.87;;;;;;;-143.84;100.00;45308.03;5111781;28;20431;-77
2022/11/30 08:21:04;;;;;;;10.60;9.20;;;;;;;-143.84;100.00;45260.44;5111647;28;20442;-77
2022/11/30 08:23:33;;;;;;;16.90;8.63;;;;;;;-143.84;100.00;45264.25;5112103;28;20939;-77
2022/11/30 08:26:05;;;;;;;9.77;8.10;;;;;;;-143.84;100.00;45254.72;5102689;28;21364;-76
2022/11/30 08:28:34;;;;;;;8.93;7.80;;;;;;;-143.84;100.00;45252.81;5091551;28;20528;-77
2022/11/30 08:31:03;;;;;;;8.50;7.30;;;;;;;-143.84;100.00;45258.53;5091593;28;20446;-77
2022/11/30 08:33:30;;;;;;;8.30;7.50;;;;;;;-143.84;100.00;45224.25;5091287;28;20469;-77
2022/11/30 08:36:06;;;;;;;8.53;7.30;;;;;;;-143.84;100.00;45245.19;5091293;28;20440;-77
2022/11/30 08:38:33;;;;;;;11.40;7.60;;;;;;;-143.84;99.92;45262.34;5091788;28;20874;-77
2022/11/30 08:41:01;;;;;;;7.20;6.50;;;;;;;-143.84;99.96;45254.72;5091266;28;20933;-77
2022/11/30 08:43:29;;;;;;;11.00;7.03;;;;;;;-143.84;100.00;45266.16;5091161;28;20841;-76
2022/11/30 08:45:57;;;;;;;8.50;6.87;;;;;;;-143.84;100.00;45239.50;5091028;28;21013;-76
2022/11/30 08:48:24;;;;;;;8.53;7.40;;;;;;;-143.84;100.00;45247.09;5091260;28;20487;-76
2022/11/30 08:50:51;;;;;;;7.80;7.00;;;;;;;-143.84;100.00;45281.38;5091049;28;20851;-77
2022/11/30 08:53:18;;;;;;;8.03;7.23;;;;;;;-143.84;99.83;45250.91;5090961;28;20444;-77
2022/11/30 08:55:55;;;;;;;8.30;7.37;;;;;;;-143.84;100.00;45256.63;5090786;28;20922;-77
2022/11/30 08:58:22;;;;;;;7.60;6.40;;;;;;;-143.84;99.74;45231.88;5090859;28;20438;-77
2022/11/30 09:00:51;;;;;;;8.47;7.30;;;;;;;-143.84;100.00;45239.50;5091361;28;20444;-77
2022/11/30 09:03:19;;;;;;;9.47;7.87;;;;;;;-143.84;100.00;45268.06;5090820;28;20855;-77
2022/11/30 09:05:46;;;;;;;7.23;6.53;;;;;;;-143.84;99.84;45260.44;5090511;28;20447;-77
2022/11/30 09:08:13;;;;;;;10.10;8.80;;;;;;;-143.84;99.67;45252.81;5090397;28;20468;-77
2022/11/30 09:10:40;;;;;;;9.30;7.80;;;;;;;-143.84;99.90;45273.78;5092473;28;20840;-77
2022/11/30 09:13:07;;;;;;;9.40;7.50;;;;;;;-143.84;99.57;45254.72;5094847;28;20957;-77
2022/11/30 09:15:35;;;;;;;9.90;8.13;;;;;;;-143.84;99.88;45252.81;5094869;28;20439;-77
2022/11/30 09:18:03;;;;;;;11.70;8.60;;;;;;;-143.84;99.70;45239.50;5095081;28;20436;-77
2022/11/30 09:20:30;;;;;;;11.30;8.57;;;;;;;-143.84;99.41;45245.19;5094345;28;20444;-77
2022/11/30 09:23:00;;;;;;;10.07;8.07;;;;;;;-143.84;99.54;45262.34;5094267;28;20855;-77
2022/11/30 09:25:27;;;;;;;14.47;8.30;;;;;;;-143.84;100.00;45258.53;5094261;28;20482;-77
2022/11/30 09:27:54;;;;;;;9.80;8.80;;;;;;;-143.84;99.68;45256.63;5092226;28;20444;-77
2022/11/30 09:30:22;;;;;;;11.87;7.90;;;;;;;-143.84;99.60;45243.31;5093367;28;20438;-77
2022/11/30 09:32:49;;;;;;;8.53;7.63;;;;;;;-143.84;99.66;45285.19;5095084;28;20424;-77
2022/11/30 09:35:18;;;;;;;10.03;8.00;;;;;;;-143.84;99.84;45269.97;5094555;28;20443;-77
2022/11/30 09:37:45;;;;;;;11.23;8.63;;;;;;;-143.84;99.40;45249.00;5094746;28;21235;-77
2022/11/30 09:40:13;;;;;;;8.07;7.07;;;;;;;-143.84;99.57;45268.06;5094852;28;20435;-77
2022/11/30 09:42:52;;;;;;;7.97;7.17;;;;;;;-143.84;99.61;45254.72;5094818;28;20435;-77
2022/11/30 09:45:23;;;;;;;8.50;7.70;;;;;;;-143.84;99.81;45264.25;5094454;28;20435;-77
2022/11/30 09:48:34;;;;;;;10.93;7.57;;;;;;;-143.84;99.80;45254.72;5094852;28;20428;-77
2022/11/30 09:51:11;;;;;;;9.70;8.13;;;;;;;-143.84;99.63;45256.63;5058075;28;20439;-77
2022/11/30 09:53:42;;;;;;;12.67;8.73;;;;;;;-143.84;99.69;45283.28;5094471;28;20454;-77
2022/11/30 09:56:25;;;;;;;11.33;8.00;;;;;;;-143.84;99.44;45239.50;5094073;28;20432;-77
2022/11/30 09:58:56;;;;;;;7.93;7.23;;;;;;;-143.84;100.00;45250.91;5094240;28;20447;-76
2022/11/30 10:01:23;;;;;;;9.13;8.20;;;;;;;-143.84;99.49;45250.91;5094147;28;20431;-76
2022/11/30 10:03:50;;;;;;;9.60;7.40;;;;;;;-143.84;99.42;45252.81;5094215;28;20436;-77
2022/11/30 10:06:25;;;;;;;11.23;7.30;;;;;;;-143.84;99.61;45256.63;5094141;28;20431;-77
2022/11/30 10:09:16;;;;;;;9.57;8.57;;;;;;;-143.84;99.72;45269.97;5094066;28;20467;-77
2022/11/30 10:11:57;;;;;;;10.80;7.63;;;;;;;-143.84;99.77;45250.91;5093651;28;20438;-77
2022/11/30 10:14:54;;;;;;;8.83;7.93;;;;;;;-143.84;99.75;45264.25;5094087;28;20435;-77
2022/11/30 10:17:35;;;;;;;9.60;7.70;;;;;;;-143.84;99.52;45264.25;5094202;28;20428;-77
2022/11/30 10:20:30;;;;;;;9.10;7.90;;;;;;;-143.84;99.48;45266.16;5094309;28;20440;-77
2022/11/30 10:23:12;;;;;;;9.13;8.23;;;;;;;-143.84;99.34;45277.56;5093411;28;20841;-77
2022/11/30 10:25:51;;;;;;;9.80;7.57;;;;;;;-143.84;99.41;45294.72;5099176;28;20494;-77
2022/11/30 10:28:22;;;;;;;10.03;8.80;;;;;;;-143.84;99.19;45247.09;5114073;28;20507;-78
2022/11/30 10:30:49;;;;;;;7.10;6.40;;;;;;;-143.84;99.41;45250.91;5114103;28;20426;-77
2022/11/30 10:33:18;;;;;;;8.07;7.30;;;;;;;-143.84;99.54;45273.78;5114334;28;20986;-77
2022/11/30 10:35:49;;;;;;;10.23;9.23;;;;;;;-143.84;99.54;45269.97;5114043;28;20473;-77
2022/11/30 10:38:22;;;;;;;10.03;7.50;;;;;;;-143.84;99.56;45256.63;5114024;28;20956;-77
2022/11/30 10:40:54;;;;;;;13.03;8.17;;;;;;;-143.84;99.27;45266.16;5114089;28;20499;-77
2022/11/30 10:43:28;;;;;;;14.63;7.87;;;;;;;-143.84;99.37;45287.09;5113960;28;20782;-77
2022/11/30 10:45:56;;;;;;;8.27;7.47;;;;;;;-143.84;99.10;45290.91;5113677;28;20521;-77
2022/11/30 10:48:34;;;;;;;10.00;7.63;;;;;;;-143.84;99.01;45260.44;5113704;28;20427;-77
2022/11/30 10:51:03;;;;;;;10.53;8.60;;;;;;;-143.84;99.16;45252.81;5113595;28;21265;-77
2022/11/30 10:53:32;;;;;;;9.93;8.50;;;;;;;-143.84;99.13;45237.59;5113619;28;20435;-77
2022/11/30 10:56:03;;;;;;;13.67;8.10;;;;;;;-143.84;99.28;45279.47;5113700;28;20505;-77
2022/11/30 10:58:36;;;;;;;9.60;8.00;;;;;;;-143.84;99.18;45250.91;5114040;28;20416;-77
2022/11/30 11:01:05;;;;;;;8.70;7.80;;;;;;;-143.84;99.00;45268.06;5113691;28;20436;-77
2022/11/30 11:03:33;;;;;;;12.03;9.03;;;;;;;-143.84;99.10;45289.00;5113312;28;20446;-77
2022/11/30 11:06:08;;;;;;;12.43;8.97;;;;;;;-143.84;99.30;45254.72;5113433;28;20439;-77
2022/11/30 11:08:37;;;;;;;10.20;8.13;;;;;;;-143.84;99.33;45308.03;5096035;28;20457;-77
2022/11/30 11:11:05;;;;;;;9.93;7.80;;;;;;;-143.84;98.98;45239.50;5113592;28;20427;-77
2022/11/30 11:13:40;;;;;;;10.73;8.90;;;;;;;-143.84;99.05;45269.97;5113292;28;20442;-77
2022/11/30 11:16:09;;;;;;;9.77;8.30;;;;;;;-143.84;99.12;45250.91;5113146;28;20438;-77
2022/11/30 11:18:37;;;;;;;11.30;9.40;;;;;;;-143.84;99.21;45277.56;5113061;28;20430;-77
2022/11/30 11:21:07;;;;;;;10.37;8.67;;;;;;;-143.84;99.55;45260.44;5113387;28;20439;-77